sensor_id;sensor_type;location;lat;lon;timestamp;temperature;humidity
4249;DHT22;8404;48.752;12.922;2022-10-19T00:01:20;13.60;99.90
4249;DHT22;8404;48.752;12.922;2022-10-19T00:03:51;13.70;99.90
4249;DHT22;8404;48.752;12.922;2022-10-19T00:06:21;13.60;99.90
4249;DHT22;8404;48.752;12.922;2022-10-19T00:08:52;13.70;99.90
4249;DHT22;8404;48.752;12.922;2022-10-19T00:11:21;13.70;99.90
4249;DHT22;8404;48.752;12.922;2022-10-19T00:13:49;13.70;99.90
4249;DHT22;8404;48.752;12.922;2022-10-19T00:16:20;13.70;99.90
4249;DHT22;8404;48.752;12.922;2022-10-19T00:18:48;13.70;99.90
4249;DHT22;8404;48.752;12.922;2022-10-19T00:21:19;13.80;99.90
4249;DHT22;8404;48.752;12.922;2022-10-19T00:23:48;13.80;99.90
4249;DHT22;8404;48.752;12.922;2022-10-19T00:26:16;13.90;99.90
4249;DHT22;8404;48.752;12.922;2022-10-19T00:28:44;13.90;99.90
4249;DHT22;8404;48.752;12.922;2022-10-19T00:31:15;14.00;99.90
4249;DHT22;8404;48.752;12.922;2022-10-19T00:33:45;14.00;99.90
4249;DHT22;8404;48.752;12.922;2022-10-19T00:36:16;14.10;99.90
4249;DHT22;8404;48.752;12.922;2022-10-19T00:38:44;14.10;99.90
4249;DHT22;8404;48.752;12.922;2022-10-19T00:41:13;14.10;99.90
4249;DHT22;8404;48.752;12.922;2022-10-19T00:43:56;14.20;99.90
4249;DHT22;8404;48.752;12.922;2022-10-19T00:46:26;14.20;99.90
4249;DHT22;8404;48.752;12.922;2022-10-19T00:48:58;14.20;99.90
4249;DHT22;8404;48.752;12.922;2022-10-19T00:51:31;14.10;99.90
4249;DHT22;8404;48.752;12.922;2022-10-19T00:54:01;14.20;99.90
4249;DHT22;8404;48.752;12.922;2022-10-19T00:56:30;14.20;99.90
4249;DHT22;8404;48.752;12.922;2022-10-19T00:59:02;14.20;99.90
4249;DHT22;8404;48.752;12.922;2022-10-19T01:01:30;14.10;99.90
4249;DHT22;8404;48.752;12.922;2022-10-19T01:04:02;14.20;99.90
4249;DHT22;8404;48.752;12.922;2022-10-19T01:06:30;14.20;99.90
4249;DHT22;8404;48.752;12.922;2022-10-19T01:08:59;14.20;99.90
4249;DHT22;8404;48.752;12.922;2022-10-19T01:11:38;14.20;99.90
4249;DHT22;8404;48.752;12.922;2022-10-19T01:14:22;14.20;99.90
4249;DHT22;8404;48.752;12.922;2022-10-19T01:16:59;14.20;99.90
4249;DHT22;8404;48.752;12.922;2022-10-19T01:19:57;14.10;99.90
4249;DHT22;8404;48.752;12.922;2022-10-19T01:22:39;14.10;99.90
4249;DHT22;8404;48.752;12.922;2022-10-19T01:25:20;14.20;99.90
4249;DHT22;8404;48.752;12.922;2022-10-19T01:27:59;14.10;99.90
4249;DHT22;8404;48.752;12.922;2022-10-19T01:30:38;14.20;99.90
4249;DHT22;8404;48.752;12.922;2022-10-19T01:33:21;14.20;99.90
4249;DHT22;8404;48.752;12.922;2022-10-19T01:36:02;14.20;99.90
4249;DHT22;8404;48.752;12.922;2022-10-19T01:38:35;14.30;99.90
4249;DHT22;8404;48.752;12.922;2022-10-19T01:41:12;14.30;99.90
4249;DHT22;8404;48.752;12.922;2022-10-19T01:43:45;14.30;99.90
4249;DHT22;8404;48.752;12.922;2022-10-19T01:46:20;14.30;99.90
4249;DHT22;8404;48.752;12.922;2022-10-19T01:48:53;14.30;99.90
4249;DHT22;8404;48.752;12.922;2022-10-19T01:51:27;14.40;99.90
4249;DHT22;8404;48.752;12.922;2022-10-19T01:53:59;14.40;99.90
4249;DHT22;8404;48.752;12.922;2022-10-19T01:56:29;14.40;99.90
4249;DHT22;8404;48.752;12.922;2022-10-19T01:59:01;14.30;99.90
4249;DHT22;8404;48.752;12.922;2022-10-19T02:01:34;14.30;99.90
4249;DHT22;8404;48.752;12.922;2022-10-19T02:04:04;14.30;99.90
4249;DHT22;8404;48.752;12.922;2022-10-19T02:06:32;14.30;99.90
4249;DHT22;8404;48.752;12.922;2022-10-19T02:09:00;14.30;99.90
4249;DHT22;8404;48.752;12.922;2022-10-19T02:11:30;14.30;99.90
4249;DHT22;8404;48.752;12.922;2022-10-19T02:14:04;14.30;99.90
4249;DHT22;8404;48.752;12.922;2022-10-19T02:16:38;14.30;99.90
4249;DHT22;8404;48.752;12.922;2022-10-19T02:19:09;14.30;99.90
4249;DHT22;8404;48.752;12.922;2022-10-19T02:21:38;14.20;99.90
4249;DHT22;8404;48.752;12.922;2022-10-19T02:24:06;14.20;99.90
4249;DHT22;8404;48.752;12.922;2022-10-19T02:26:35;14.20;99.90
4249;DHT22;8404;48.752;12.922;2022-10-19T02:29:03;14.20;99.90
4249;DHT22;8404;48.752;12.922;2022-10-19T02:31:31;14.20;99.90
4249;DHT22;8404;48.752;12.922;2022-10-19T02:34:01;14.10;99.90
4249;DHT22;8404;48.752;12.922;2022-10-19T02:36:29;14.10;99.90
4249;DHT22;8404;48.752;12.922;2022-10-19T02:38:57;14.10;99.90
4249;DHT22;8404;48.752;12.922;2022-10-19T02:41:31;14.20;99.90
4249;DHT22;8404;48.752;12.922;2022-10-19T02:44:04;14.20;99.90
4249;DHT22;8404;48.752;12.922;2022-10-19T02:46:37;14.20;99.90
4249;DHT22;8404;48.752;12.922;2022-10-19T02:49:09;14.20;99.90
4249;DHT22;8404;48.752;12.922;2022-10-19T02:51:53;14.20;99.90
4249;DHT22;8404;48.752;12.922;2022-10-19T02:54:22;14.20;99.90
4249;DHT22;8404;48.752;12.922;2022-10-19T02:56:50;14.10;99.90
4249;DHT22;8404;48.752;12.922;2022-10-19T02:59:19;14.10;99.90
4249;DHT22;8404;48.752;12.922;2022-10-19T03:01:47;14.00;99.90
4249;DHT22;8404;48.752;12.922;2022-10-19T03:04:16;14.00;99.90
4249;DHT22;8404;48.752;12.922;2022-10-19T03:06:45;13.90;99.90
4249;DHT22;8404;48.752;12.922;2022-10-19T03:09:13;13.80;99.90
4249;DHT22;8404;48.752;12.922;2022-10-19T03:11:41;13.70;99.90
4249;DHT22;8404;48.752;12.922;2022-10-19T03:14:09;13.60;99.90
4249;DHT22;8404;48.752;12.922;2022-10-19T03:16:37;13.70;99.90
4249;DHT22;8404;48.752;12.922;2022-10-19T03:19:05;13.60;99.90
4249;DHT22;8404;48.752;12.922;2022-10-19T03:21:35;13.50;99.90
4249;DHT22;8404;48.752;12.922;2022-10-19T03:24:03;13.50;99.90
4249;DHT22;8404;48.752;12.922;2022-10-19T03:26:31;13.50;99.90
4249;DHT22;8404;48.752;12.922;2022-10-19T03:28:59;13.50;99.90
4249;DHT22;8404;48.752;12.922;2022-10-19T03:31:28;13.40;99.90
4249;DHT22;8404;48.752;12.922;2022-10-19T03:33:56;13.50;99.90
4249;DHT22;8404;48.752;12.922;2022-10-19T03:36:25;13.50;99.90
4249;DHT22;8404;48.752;12.922;2022-10-19T03:38:56;13.50;99.90
4249;DHT22;8404;48.752;12.922;2022-10-19T03:41:27;13.50;99.90
4249;DHT22;8404;48.752;12.922;2022-10-19T03:43:55;13.50;99.90
4249;DHT22;8404;48.752;12.922;2022-10-19T03:46:23;13.40;99.90
4249;DHT22;8404;48.752;12.922;2022-10-19T03:48:52;13.50;99.90
4249;DHT22;8404;48.752;12.922;2022-10-19T03:51:22;13.50;99.90
4249;DHT22;8404;48.752;12.922;2022-10-19T03:53:51;13.50;99.90
4249;DHT22;8404;48.752;12.922;2022-10-19T03:56:23;13.50;99.90
4249;DHT22;8404;48.752;12.922;2022-10-19T03:58:53;13.50;99.90
4249;DHT22;8404;48.752;12.922;2022-10-19T04:01:23;13.50;99.90
4249;DHT22;8404;48.752;12.922;2022-10-19T04:03:52;13.40;99.90
4249;DHT22;8404;48.752;12.922;2022-10-19T04:06:23;13.40;99.90
4249;DHT22;8404;48.752;12.922;2022-10-19T04:08:55;13.40;99.90
4249;DHT22;8404;48.752;12.922;2022-10-19T04:11:28;13.40;99.90
4249;DHT22;8404;48.752;12.922;2022-10-19T04:13:57;13.30;99.90
4249;DHT22;8404;48.752;12.922;2022-10-19T04:16:28;13.30;99.90
4249;DHT22;8404;48.752;12.922;2022-10-19T04:18:56;13.30;99.90
4249;DHT22;8404;48.752;12.922;2022-10-19T04:21:26;13.30;99.90
4249;DHT22;8404;48.752;12.922;2022-10-19T04:23:58;13.30;99.90
4249;DHT22;8404;48.752;12.922;2022-10-19T04:26:28;13.30;99.90
4249;DHT22;8404;48.752;12.922;2022-10-19T04:28:57;13.20;99.90
4249;DHT22;8404;48.752;12.922;2022-10-19T04:31:26;13.20;99.90
4249;DHT22;8404;48.752;12.922;2022-10-19T04:33:54;13.20;99.90
4249;DHT22;8404;48.752;12.922;2022-10-19T04:36:23;13.20;99.90
4249;DHT22;8404;48.752;12.922;2022-10-19T04:38:51;13.20;99.90
4249;DHT22;8404;48.752;12.922;2022-10-19T04:41:21;13.10;99.90
4249;DHT22;8404;48.752;12.922;2022-10-19T04:43:54;13.10;99.90
4249;DHT22;8404;48.752;12.922;2022-10-19T04:46:23;13.10;99.90
4249;DHT22;8404;48.752;12.922;2022-10-19T04:48:53;13.20;99.90
4249;DHT22;8404;48.752;12.922;2022-10-19T04:51:21;13.20;99.90
4249;DHT22;8404;48.752;12.922;2022-10-19T04:53:50;13.20;99.90
4249;DHT22;8404;48.752;12.922;2022-10-19T04:56:25;13.30;99.90
4249;DHT22;8404;48.752;12.922;2022-10-19T04:58:56;13.40;99.90
4249;DHT22;8404;48.752;12.922;2022-10-19T05:01:25;13.40;99.90
4249;DHT22;8404;48.752;12.922;2022-10-19T05:03:55;13.50;99.90
4249;DHT22;8404;48.752;12.922;2022-10-19T05:06:24;13.50;99.90
4249;DHT22;8404;48.752;12.922;2022-10-19T05:08:52;13.50;99.90
4249;DHT22;8404;48.752;12.922;2022-10-19T05:11:21;13.50;99.90
4249;DHT22;8404;48.752;12.922;2022-10-19T05:13:50;13.50;99.90
4249;DHT22;8404;48.752;12.922;2022-10-19T05:16:21;13.50;99.90
4249;DHT22;8404;48.752;12.922;2022-10-19T05:18:50;13.50;99.90
4249;DHT22;8404;48.752;12.922;2022-10-19T05:21:19;13.60;99.90
4249;DHT22;8404;48.752;12.922;2022-10-19T05:23:50;13.60;99.90
4249;DHT22;8404;48.752;12.922;2022-10-19T05:26:20;13.60;99.90
4249;DHT22;8404;48.752;12.922;2022-10-19T05:28:50;13.60;99.90
4249;DHT22;8404;48.752;12.922;2022-10-19T05:31:27;13.60;99.90
4249;DHT22;8404;48.752;12.922;2022-10-19T05:33:55;13.60;99.90
4249;DHT22;8404;48.752;12.922;2022-10-19T05:36:26;13.70;99.90
4249;DHT22;8404;48.752;12.922;2022-10-19T05:38:56;13.70;99.90
4249;DHT22;8404;48.752;12.922;2022-10-19T05:41:25;13.70;99.90
4249;DHT22;8404;48.752;12.922;2022-10-19T05:43:56;13.70;99.90
4249;DHT22;8404;48.752;12.922;2022-10-19T05:46:27;13.70;99.90
4249;DHT22;8404;48.752;12.922;2022-10-19T05:48:57;13.70;99.90
4249;DHT22;8404;48.752;12.922;2022-10-19T05:51:26;13.70;99.90
4249;DHT22;8404;48.752;12.922;2022-10-19T05:53:55;13.70;99.90
4249;DHT22;8404;48.752;12.922;2022-10-19T05:56:25;13.70;99.90
4249;DHT22;8404;48.752;12.922;2022-10-19T05:58:54;13.70;99.90
4249;DHT22;8404;48.752;12.922;2022-10-19T06:01:23;13.80;99.90
4249;DHT22;8404;48.752;12.922;2022-10-19T06:03:54;13.80;99.90
4249;DHT22;8404;48.752;12.922;2022-10-19T06:06:24;13.80;99.90
4249;DHT22;8404;48.752;12.922;2022-10-19T06:08:53;13.80;99.90
4249;DHT22;8404;48.752;12.922;2022-10-19T06:11:25;13.80;99.90
4249;DHT22;8404;48.752;12.922;2022-10-19T06:13:55;13.90;99.90
4249;DHT22;8404;48.752;12.922;2022-10-19T06:16:26;13.90;99.90
4249;DHT22;8404;48.752;12.922;2022-10-19T06:18:56;13.90;99.90
4249;DHT22;8404;48.752;12.922;2022-10-19T06:21:26;13.90;99.90
4249;DHT22;8404;48.752;12.922;2022-10-19T06:23:56;14.00;99.90
4249;DHT22;8404;48.752;12.922;2022-10-19T06:26:25;14.00;99.90
4249;DHT22;8404;48.752;12.922;2022-10-19T06:28:55;14.00;99.90
4249;DHT22;8404;48.752;12.922;2022-10-19T06:31:23;14.10;99.90
4249;DHT22;8404;48.752;12.922;2022-10-19T06:33:52;14.10;99.90
4249;DHT22;8404;48.752;12.922;2022-10-19T06:36:25;14.10;99.90
4249;DHT22;8404;48.752;12.922;2022-10-19T06:38:53;14.00;99.90
4249;DHT22;8404;48.752;12.922;2022-10-19T06:41:22;13.90;99.90
4249;DHT22;8404;48.752;12.922;2022-10-19T06:43:51;13.80;99.90
4249;DHT22;8404;48.752;12.922;2022-10-19T06:46:23;13.80;99.90
4249;DHT22;8404;48.752;12.922;2022-10-19T06:48:52;13.80;99.90
4249;DHT22;8404;48.752;12.922;2022-10-19T06:51:23;13.70;99.90
4249;DHT22;8404;48.752;12.922;2022-10-19T06:53:52;13.70;99.90
4249;DHT22;8404;48.752;12.922;2022-10-19T06:56:23;13.60;99.90
4249;DHT22;8404;48.752;12.922;2022-10-19T06:58:52;13.60;99.90
4249;DHT22;8404;48.752;12.922;2022-10-19T07:01:20;13.50;99.90
4249;DHT22;8404;48.752;12.922;2022-10-19T07:03:49;13.50;99.90
4249;DHT22;8404;48.752;12.922;2022-10-19T07:06:19;13.60;99.90
4249;DHT22;8404;48.752;12.922;2022-10-19T07:08:48;13.60;99.90
4249;DHT22;8404;48.752;12.922;2022-10-19T07:11:18;13.70;99.90
4249;DHT22;8404;48.752;12.922;2022-10-19T07:13:48;13.60;99.90
4249;DHT22;8404;48.752;12.922;2022-10-19T07:16:17;13.60;99.90
4249;DHT22;8404;48.752;12.922;2022-10-19T07:18:48;13.70;99.90
4249;DHT22;8404;48.752;12.922;2022-10-19T07:21:18;13.50;99.90
4249;DHT22;8404;48.752;12.922;2022-10-19T07:23:46;13.50;99.90
4249;DHT22;8404;48.752;12.922;2022-10-19T07:26:17;13.50;99.90
4249;DHT22;8404;48.752;12.922;2022-10-19T07:28:47;13.60;99.90
4249;DHT22;8404;48.752;12.922;2022-10-19T07:31:17;13.70;99.90
4249;DHT22;8404;48.752;12.922;2022-10-19T07:33:46;13.80;99.90
4249;DHT22;8404;48.752;12.922;2022-10-19T07:36:14;13.90;99.90
4249;DHT22;8404;48.752;12.922;2022-10-19T07:38:42;13.90;99.90
4249;DHT22;8404;48.752;12.922;2022-10-19T07:41:13;13.90;99.90
4249;DHT22;8404;48.752;12.922;2022-10-19T07:43:44;13.90;99.90
4249;DHT22;8404;48.752;12.922;2022-10-19T07:46:14;13.90;99.90
4249;DHT22;8404;48.752;12.922;2022-10-19T07:48:43;13.90;99.90
4249;DHT22;8404;48.752;12.922;2022-10-19T07:51:12;13.90;99.90
4249;DHT22;8404;48.752;12.922;2022-10-19T07:53:41;13.90;99.90
4249;DHT22;8404;48.752;12.922;2022-10-19T07:56:11;13.80;99.90
4249;DHT22;8404;48.752;12.922;2022-10-19T07:58:39;13.80;99.90
4249;DHT22;8404;48.752;12.922;2022-10-19T08:01:10;13.80;99.90
4249;DHT22;8404;48.752;12.922;2022-10-19T08:03:40;13.70;99.90
4249;DHT22;8404;48.752;12.922;2022-10-19T08:06:29;13.80;99.90
4249;DHT22;8404;48.752;12.922;2022-10-19T08:08:57;13.80;99.90
4249;DHT22;8404;48.752;12.922;2022-10-19T08:11:27;13.80;99.90
4249;DHT22;8404;48.752;12.922;2022-10-19T08:13:55;13.90;99.90
4249;DHT22;8404;48.752;12.922;2022-10-19T08:16:28;14.00;99.90
4249;DHT22;8404;48.752;12.922;2022-10-19T08:19:00;14.10;99.90
4249;DHT22;8404;48.752;12.922;2022-10-19T08:21:30;14.20;99.90
4249;DHT22;8404;48.752;12.922;2022-10-19T08:23:58;14.30;99.90
4249;DHT22;8404;48.752;12.922;2022-10-19T08:26:27;14.30;99.90
4249;DHT22;8404;48.752;12.922;2022-10-19T08:28:58;14.30;99.90
4249;DHT22;8404;48.752;12.922;2022-10-19T08:31:28;14.40;99.90
4249;DHT22;8404;48.752;12.922;2022-10-19T08:33:57;14.50;99.90
4249;DHT22;8404;48.752;12.922;2022-10-19T08:36:25;14.60;99.70
4249;DHT22;8404;48.752;12.922;2022-10-19T08:38:57;14.60;99.60
4249;DHT22;8404;48.752;12.922;2022-10-19T08:41:31;14.50;99.60
4249;DHT22;8404;48.752;12.922;2022-10-19T08:44:21;14.50;99.40
4249;DHT22;8404;48.752;12.922;2022-10-19T08:46:58;14.60;99.80
4249;DHT22;8404;48.752;12.922;2022-10-19T08:49:33;14.70;99.80
4249;DHT22;8404;48.752;12.922;2022-10-19T08:52:05;14.70;99.60
4249;DHT22;8404;48.752;12.922;2022-10-19T08:54:39;14.60;99.10
4249;DHT22;8404;48.752;12.922;2022-10-19T08:57:14;14.60;99.10
4249;DHT22;8404;48.752;12.922;2022-10-19T08:59:56;14.60;99.20
4249;DHT22;8404;48.752;12.922;2022-10-19T09:02:38;14.70;99.20
4249;DHT22;8404;48.752;12.922;2022-10-19T09:05:14;14.70;98.50
4249;DHT22;8404;48.752;12.922;2022-10-19T09:07:46;14.80;98.60
4249;DHT22;8404;48.752;12.922;2022-10-19T09:10:20;14.70;98.50
4249;DHT22;8404;48.752;12.922;2022-10-19T09:12:55;14.80;98.90
4249;DHT22;8404;48.752;12.922;2022-10-19T09:15:26;14.80;98.70
4249;DHT22;8404;48.752;12.922;2022-10-19T09:17:57;14.80;98.80
4249;DHT22;8404;48.752;12.922;2022-10-19T09:20:30;14.80;98.90
4249;DHT22;8404;48.752;12.922;2022-10-19T09:23:03;14.90;98.80
4249;DHT22;8404;48.752;12.922;2022-10-19T09:25:38;15.00;98.50
4249;DHT22;8404;48.752;12.922;2022-10-19T09:28:19;15.00;98.50
4249;DHT22;8404;48.752;12.922;2022-10-19T09:31:00;15.00;98.30
4249;DHT22;8404;48.752;12.922;2022-10-19T09:33:33;15.10;98.10
4249;DHT22;8404;48.752;12.922;2022-10-19T09:36:04;15.10;98.20
4249;DHT22;8404;48.752;12.922;2022-10-19T09:38:32;15.00;98.00
4249;DHT22;8404;48.752;12.922;2022-10-19T09:41:17;15.10;97.90
4249;DHT22;8404;48.752;12.922;2022-10-19T09:43:52;15.20;98.10
4249;DHT22;8404;48.752;12.922;2022-10-19T09:46:32;15.30;98.20
4249;DHT22;8404;48.752;12.922;2022-10-19T09:49:06;15.40;97.90
4249;DHT22;8404;48.752;12.922;2022-10-19T09:51:46;15.50;96.40
4249;DHT22;8404;48.752;12.922;2022-10-19T09:54:25;15.50;96.80
4249;DHT22;8404;48.752;12.922;2022-10-19T09:56:54;15.40;96.70
4249;DHT22;8404;48.752;12.922;2022-10-19T09:59:27;15.50;97.30
4249;DHT22;8404;48.752;12.922;2022-10-19T10:01:59;15.50;96.30
4249;DHT22;8404;48.752;12.922;2022-10-19T10:04:35;15.50;96.70
4249;DHT22;8404;48.752;12.922;2022-10-19T10:07:04;15.50;96.60
4249;DHT22;8404;48.752;12.922;2022-10-19T10:09:37;15.60;96.60
4249;DHT22;8404;48.752;12.922;2022-10-19T10:12:07;15.80;96.60
4249;DHT22;8404;48.752;12.922;2022-10-19T10:14:40;15.90;96.10
4249;DHT22;8404;48.752;12.922;2022-10-19T10:17:14;15.90;95.50
4249;DHT22;8404;48.752;12.922;2022-10-19T10:20:00;15.90;94.80
4249;DHT22;8404;48.752;12.922;2022-10-19T10:22:33;15.80;95.60
4249;DHT22;8404;48.752;12.922;2022-10-19T10:25:16;15.80;95.30
4249;DHT22;8404;48.752;12.922;2022-10-19T10:27:54;15.90;95.20
4249;DHT22;8404;48.752;12.922;2022-10-19T10:30:23;16.00;95.50
4249;DHT22;8404;48.752;12.922;2022-10-19T10:32:52;15.90;94.80
4249;DHT22;8404;48.752;12.922;2022-10-19T10:35:24;15.90;95.30
4249;DHT22;8404;48.752;12.922;2022-10-19T10:38:03;15.90;95.30
4249;DHT22;8404;48.752;12.922;2022-10-19T10:40:34;15.90;95.60
4249;DHT22;8404;48.752;12.922;2022-10-19T10:43:05;16.00;95.40
4249;DHT22;8404;48.752;12.922;2022-10-19T10:45:38;16.10;95.80
4249;DHT22;8404;48.752;12.922;2022-10-19T10:48:25;16.10;94.70
4249;DHT22;8404;48.752;12.922;2022-10-19T10:50:56;16.00;94.70
4249;DHT22;8404;48.752;12.922;2022-10-19T10:53:31;15.90;95.00
4249;DHT22;8404;48.752;12.922;2022-10-19T10:56:01;15.90;95.10
4249;DHT22;8404;48.752;12.922;2022-10-19T10:58:36;15.90;95.00
4249;DHT22;8404;48.752;12.922;2022-10-19T11:01:14;16.00;94.70
4249;DHT22;8404;48.752;12.922;2022-10-19T11:03:50;16.00;94.90
4249;DHT22;8404;48.752;12.922;2022-10-19T11:06:22;15.90;94.50
4249;DHT22;8404;48.752;12.922;2022-10-19T11:09:01;15.90;94.50
4249;DHT22;8404;48.752;12.922;2022-10-19T11:11:34;15.90;94.90
4249;DHT22;8404;48.752;12.922;2022-10-19T11:14:31;15.90;95.10
4249;DHT22;8404;48.752;12.922;2022-10-19T11:17:05;15.90;95.30
4249;DHT22;8404;48.752;12.922;2022-10-19T11:19:36;16.00;95.50
4249;DHT22;8404;48.752;12.922;2022-10-19T11:22:15;16.10;95.20
4249;DHT22;8404;48.752;12.922;2022-10-19T11:25:00;16.10;95.60
4249;DHT22;8404;48.752;12.922;2022-10-19T11:27:39;16.20;95.90
4249;DHT22;8404;48.752;12.922;2022-10-19T11:30:11;16.30;95.60
4249;DHT22;8404;48.752;12.922;2022-10-19T11:33:00;16.40;96.00
4249;DHT22;8404;48.752;12.922;2022-10-19T11:35:48;16.60;95.30
4249;DHT22;8404;48.752;12.922;2022-10-19T11:38:35;16.60;93.80
4249;DHT22;8404;48.752;12.922;2022-10-19T11:41:15;16.60;94.10
4249;DHT22;8404;48.752;12.922;2022-10-19T11:46:50;16.60;93.10
4249;DHT22;8404;48.752;12.922;2022-10-19T11:49:30;16.50;93.40
4249;DHT22;8404;48.752;12.922;2022-10-19T11:52:03;16.50;93.70
4249;DHT22;8404;48.752;12.922;2022-10-19T11:54:43;16.50;93.40
4249;DHT22;8404;48.752;12.922;2022-10-19T11:57:20;16.60;93.70
4249;DHT22;8404;48.752;12.922;2022-10-19T11:59:59;16.60;93.10
4249;DHT22;8404;48.752;12.922;2022-10-19T12:03:14;16.70;93.50
4249;DHT22;8404;48.752;12.922;2022-10-19T12:05:55;16.80;93.00
4249;DHT22;8404;48.752;12.922;2022-10-19T12:08:34;16.80;92.00
4249;DHT22;8404;48.752;12.922;2022-10-19T12:11:15;16.80;92.60
4249;DHT22;8404;48.752;12.922;2022-10-19T12:13:52;16.80;91.30
4249;DHT22;8404;48.752;12.922;2022-10-19T12:16:28;16.90;91.10
4249;DHT22;8404;48.752;12.922;2022-10-19T12:19:02;16.90;91.60
4249;DHT22;8404;48.752;12.922;2022-10-19T12:21:34;16.90;91.40
4249;DHT22;8404;48.752;12.922;2022-10-19T12:24:05;16.90;91.40
4249;DHT22;8404;48.752;12.922;2022-10-19T12:26:39;16.90;91.30
4249;DHT22;8404;48.752;12.922;2022-10-19T12:29:13;16.90;91.70
4249;DHT22;8404;48.752;12.922;2022-10-19T12:31:42;16.90;91.80
4249;DHT22;8404;48.752;12.922;2022-10-19T12:34:25;17.00;92.10
4249;DHT22;8404;48.752;12.922;2022-10-19T12:36:59;17.10;91.80
4249;DHT22;8404;48.752;12.922;2022-10-19T12:39:34;17.20;91.20
4249;DHT22;8404;48.752;12.922;2022-10-19T12:42:15;17.30;90.60
4249;DHT22;8404;48.752;12.922;2022-10-19T12:45:10;17.30;90.20
4249;DHT22;8404;48.752;12.922;2022-10-19T12:48:14;17.30;90.90
4249;DHT22;8404;48.752;12.922;2022-10-19T12:51:12;17.40;90.00
4249;DHT22;8404;48.752;12.922;2022-10-19T12:53:43;17.40;89.90
4249;DHT22;8404;48.752;12.922;2022-10-19T12:56:18;17.50;89.20
4249;DHT22;8404;48.752;12.922;2022-10-19T12:58:52;17.50;86.90
4249;DHT22;8404;48.752;12.922;2022-10-19T13:01:24;17.50;87.80
4249;DHT22;8404;48.752;12.922;2022-10-19T13:04:06;17.60;88.90
4249;DHT22;8404;48.752;12.922;2022-10-19T13:06:37;17.70;88.70
4249;DHT22;8404;48.752;12.922;2022-10-19T13:09:18;17.70;87.40
4249;DHT22;8404;48.752;12.922;2022-10-19T13:14:54;17.90;85.20
4249;DHT22;8404;48.752;12.922;2022-10-19T13:17:40;18.00;84.60
4249;DHT22;8404;48.752;12.922;2022-10-19T13:20:48;18.00;83.70
4249;DHT22;8404;48.752;12.922;2022-10-19T13:23:36;18.20;84.90
4249;DHT22;8404;48.752;12.922;2022-10-19T13:26:30;18.40;81.60
4249;DHT22;8404;48.752;12.922;2022-10-19T13:28:59;18.70;82.30
4249;DHT22;8404;48.752;12.922;2022-10-19T13:31:30;18.90;78.40
4249;DHT22;8404;48.752;12.922;2022-10-19T13:33:59;19.10;77.40
4249;DHT22;8404;48.752;12.922;2022-10-19T13:36:28;19.20;76.70
4249;DHT22;8404;48.752;12.922;2022-10-19T13:39:14;19.40;75.50
4249;DHT22;8404;48.752;12.922;2022-10-19T13:41:50;19.60;75.80
4249;DHT22;8404;48.752;12.922;2022-10-19T13:44:31;19.80;73.10
4249;DHT22;8404;48.752;12.922;2022-10-19T13:47:35;20.00;74.30
4249;DHT22;8404;48.752;12.922;2022-10-19T13:50:28;20.30;72.70
4249;DHT22;8404;48.752;12.922;2022-10-19T13:53:23;20.50;72.10
4249;DHT22;8404;48.752;12.922;2022-10-19T13:56:03;20.70;72.70
4249;DHT22;8404;48.752;12.922;2022-10-19T13:59:16;21.00;72.00
4249;DHT22;8404;48.752;12.922;2022-10-19T14:04:53;21.30;66.70
4249;DHT22;8404;48.752;12.922;2022-10-19T14:07:29;21.30;66.60
4249;DHT22;8404;48.752;12.922;2022-10-19T14:10:04;21.30;65.70
4249;DHT22;8404;48.752;12.922;2022-10-19T14:12:38;21.20;66.50
4249;DHT22;8404;48.752;12.922;2022-10-19T14:15:22;21.40;66.60
4249;DHT22;8404;48.752;12.922;2022-10-19T14:17:50;21.30;63.20
4249;DHT22;8404;48.752;12.922;2022-10-19T14:20:27;21.30;65.00
4249;DHT22;8404;48.752;12.922;2022-10-19T14:22:56;21.20;63.40
4249;DHT22;8404;48.752;12.922;2022-10-19T14:25:26;21.20;63.40
4249;DHT22;8404;48.752;12.922;2022-10-19T14:27:58;21.20;61.70
4249;DHT22;8404;48.752;12.922;2022-10-19T14:30:29;21.10;62.90
4249;DHT22;8404;48.752;12.922;2022-10-19T14:32:59;21.00;62.80
4249;DHT22;8404;48.752;12.922;2022-10-19T14:35:32;20.90;61.40
4249;DHT22;8404;48.752;12.922;2022-10-19T14:38:02;20.80;62.50
4249;DHT22;8404;48.752;12.922;2022-10-19T14:40:33;20.80;62.50
4249;DHT22;8404;48.752;12.922;2022-10-19T14:43:19;20.70;61.50
4249;DHT22;8404;48.752;12.922;2022-10-19T14:46:10;20.60;61.50
4249;DHT22;8404;48.752;12.922;2022-10-19T14:48:40;20.60;60.70
4249;DHT22;8404;48.752;12.922;2022-10-19T14:51:31;20.50;61.00
4249;DHT22;8404;48.752;12.922;2022-10-19T14:54:06;20.40;62.60
4249;DHT22;8404;48.752;12.922;2022-10-19T14:56:38;20.40;62.80
4249;DHT22;8404;48.752;12.922;2022-10-19T14:59:18;20.50;61.20
4249;DHT22;8404;48.752;12.922;2022-10-19T15:01:52;20.40;62.20
4249;DHT22;8404;48.752;12.922;2022-10-19T15:04:24;20.30;62.40
4249;DHT22;8404;48.752;12.922;2022-10-19T15:06:54;20.20;61.70
4249;DHT22;8404;48.752;12.922;2022-10-19T15:09:31;20.10;62.50
4249;DHT22;8404;48.752;12.922;2022-10-19T15:12:16;20.00;62.80
4249;DHT22;8404;48.752;12.922;2022-10-19T15:14:46;19.80;63.40
4249;DHT22;8404;48.752;12.922;2022-10-19T15:17:26;19.80;62.70
4249;DHT22;8404;48.752;12.922;2022-10-19T15:19:55;19.70;62.80
4249;DHT22;8404;48.752;12.922;2022-10-19T15:22:38;19.60;63.50
4249;DHT22;8404;48.752;12.922;2022-10-19T15:25:25;19.40;63.80
4249;DHT22;8404;48.752;12.922;2022-10-19T15:27:54;19.20;64.80
4249;DHT22;8404;48.752;12.922;2022-10-19T15:30:31;19.10;64.50
4249;DHT22;8404;48.752;12.922;2022-10-19T15:33:13;19.00;65.20
4249;DHT22;8404;48.752;12.922;2022-10-19T15:35:43;18.80;65.10
4249;DHT22;8404;48.752;12.922;2022-10-19T15:38:19;18.60;65.80
4249;DHT22;8404;48.752;12.922;2022-10-19T15:40:55;18.50;66.40
4249;DHT22;8404;48.752;12.922;2022-10-19T15:43:35;18.50;66.30
4249;DHT22;8404;48.752;12.922;2022-10-19T15:46:05;18.40;67.70
4249;DHT22;8404;48.752;12.922;2022-10-19T15:48:43;18.20;67.70
4249;DHT22;8404;48.752;12.922;2022-10-19T15:51:33;18.00;68.20
4249;DHT22;8404;48.752;12.922;2022-10-19T15:54:05;17.80;68.80
4249;DHT22;8404;48.752;12.922;2022-10-19T15:56:36;17.50;69.70
4249;DHT22;8404;48.752;12.922;2022-10-19T15:59:09;17.40;70.40
4249;DHT22;8404;48.752;12.922;2022-10-19T16:01:38;17.20;71.20
4249;DHT22;8404;48.752;12.922;2022-10-19T16:04:06;17.10;71.90
4249;DHT22;8404;48.752;12.922;2022-10-19T16:06:36;16.90;72.70
4249;DHT22;8404;48.752;12.922;2022-10-19T16:09:09;16.80;73.10
4249;DHT22;8404;48.752;12.922;2022-10-19T16:11:40;16.60;73.70
4249;DHT22;8404;48.752;12.922;2022-10-19T16:14:08;16.50;74.40
4249;DHT22;8404;48.752;12.922;2022-10-19T16:16:36;16.40;74.60
4249;DHT22;8404;48.752;12.922;2022-10-19T16:19:05;16.30;74.60
4249;DHT22;8404;48.752;12.922;2022-10-19T16:21:34;16.20;75.40
4249;DHT22;8404;48.752;12.922;2022-10-19T16:24:03;16.10;75.20
4249;DHT22;8404;48.752;12.922;2022-10-19T16:26:33;16.00;75.50
4249;DHT22;8404;48.752;12.922;2022-10-19T16:29:01;15.90;74.90
4249;DHT22;8404;48.752;12.922;2022-10-19T16:31:29;15.80;75.50
4249;DHT22;8404;48.752;12.922;2022-10-19T16:33:58;15.70;76.30